sensor_id;sensor_type;location;lat;lon;timestamp;P1;durP1;ratioP1;P2;durP2;ratioP2
14484;SDS011;7328;50.812;4.422;2022-07-06T00:01:43;2.03;;;1.90;;
14484;SDS011;7328;50.812;4.422;2022-07-06T00:04:09;2.90;;;2.63;;
14484;SDS011;7328;50.812;4.422;2022-07-06T00:06:34;4.13;;;2.23;;
14484;SDS011;7328;50.812;4.422;2022-07-06T00:09:01;1.90;;;1.57;;
14484;SDS011;7328;50.812;4.422;2022-07-06T00:11:27;5.03;;;2.00;;
14484;SDS011;7328;50.812;4.422;2022-07-06T00:13:53;3.50;;;2.83;;
14484;SDS011;7328;50.812;4.422;2022-07-06T00:16:19;2.90;;;2.00;;
14484;SDS011;7328;50.812;4.422;2022-07-06T00:18:45;2.20;;;2.10;;
14484;SDS011;7328;50.812;4.422;2022-07-06T00:21:11;2.43;;;2.30;;
14484;SDS011;7328;50.812;4.422;2022-07-06T00:23:36;2.70;;;2.00;;
14484;SDS011;7328;50.812;4.422;2022-07-06T00:26:02;3.93;;;2.30;;
14484;SDS011;7328;50.812;4.422;2022-07-06T00:28:28;3.53;;;1.73;;
14484;SDS011;7328;50.812;4.422;2022-07-06T00:30:54;3.20;;;2.10;;
14484;SDS011;7328;50.812;4.422;2022-07-06T00:33:20;3.50;;;2.20;;
14484;SDS011;7328;50.812;4.422;2022-07-06T00:35:46;6.90;;;2.67;;
14484;SDS011;7328;50.812;4.422;2022-07-06T00:38:13;2.83;;;1.77;;
14484;SDS011;7328;50.812;4.422;2022-07-06T00:40:39;2.20;;;2.00;;
14484;SDS011;7328;50.812;4.422;2022-07-06T00:43:05;5.43;;;2.63;;
14484;SDS011;7328;50.812;4.422;2022-07-06T00:45:31;3.07;;;2.17;;
14484;SDS011;7328;50.812;4.422;2022-07-06T00:47:56;2.73;;;2.53;;
14484;SDS011;7328;50.812;4.422;2022-07-06T00:50:22;3.73;;;2.43;;
14484;SDS011;7328;50.812;4.422;2022-07-06T00:52:49;2.33;;;1.90;;
14484;SDS011;7328;50.812;4.422;2022-07-06T00:55:25;4.43;;;2.23;;
14484;SDS011;7328;50.812;4.422;2022-07-06T00:57:52;2.30;;;2.13;;
14484;SDS011;7328;50.812;4.422;2022-07-06T01:00:20;3.43;;;2.37;;
14484;SDS011;7328;50.812;4.422;2022-07-06T01:02:49;3.90;;;2.57;;
14484;SDS011;7328;50.812;4.422;2022-07-06T01:05:15;2.60;;;2.17;;
14484;SDS011;7328;50.812;4.422;2022-07-06T01:07:42;3.13;;;2.77;;
14484;SDS011;7328;50.812;4.422;2022-07-06T01:10:10;4.03;;;2.33;;
14484;SDS011;7328;50.812;4.422;2022-07-06T01:12:38;3.40;;;2.20;;
14484;SDS011;7328;50.812;4.422;2022-07-06T01:15:06;3.17;;;2.27;;
14484;SDS011;7328;50.812;4.422;2022-07-06T01:17:34;4.90;;;2.17;;
14484;SDS011;7328;50.812;4.422;2022-07-06T01:20:09;6.00;;;2.43;;
14484;SDS011;7328;50.812;4.422;2022-07-06T01:22:39;5.60;;;2.37;;
14484;SDS011;7328;50.812;4.422;2022-07-06T01:25:05;3.50;;;2.60;;
14484;SDS011;7328;50.812;4.422;2022-07-06T01:27:32;2.87;;;2.57;;
14484;SDS011;7328;50.812;4.422;2022-07-06T01:30:05;4.83;;;3.47;;
14484;SDS011;7328;50.812;4.422;2022-07-06T01:32:33;4.13;;;2.63;;
14484;SDS011;7328;50.812;4.422;2022-07-06T01:34:59;4.27;;;2.67;;
14484;SDS011;7328;50.812;4.422;2022-07-06T01:37:25;2.33;;;2.07;;
14484;SDS011;7328;50.812;4.422;2022-07-06T01:39:51;6.03;;;2.67;;
14484;SDS011;7328;50.812;4.422;2022-07-06T01:42:17;4.13;;;2.47;;
14484;SDS011;7328;50.812;4.422;2022-07-06T01:44:43;5.57;;;1.97;;
14484;SDS011;7328;50.812;4.422;2022-07-06T01:47:10;4.67;;;2.40;;
14484;SDS011;7328;50.812;4.422;2022-07-06T01:49:36;2.50;;;2.30;;
14484;SDS011;7328;50.812;4.422;2022-07-06T01:52:02;2.57;;;2.30;;
14484;SDS011;7328;50.812;4.422;2022-07-06T01:54:28;2.20;;;2.00;;
14484;SDS011;7328;50.812;4.422;2022-07-06T01:56:54;5.97;;;3.00;;
14484;SDS011;7328;50.812;4.422;2022-07-06T01:59:20;3.90;;;3.60;;
14484;SDS011;7328;50.812;4.422;2022-07-06T02:01:45;3.30;;;3.10;;
14484;SDS011;7328;50.812;4.422;2022-07-06T02:04:11;5.73;;;3.63;;
14484;SDS011;7328;50.812;4.422;2022-07-06T02:06:37;2.93;;;2.73;;
14484;SDS011;7328;50.812;4.422;2022-07-06T02:09:03;3.53;;;3.30;;
14484;SDS011;7328;50.812;4.422;2022-07-06T02:11:29;3.77;;;3.47;;
14484;SDS011;7328;50.812;4.422;2022-07-06T02:13:54;6.00;;;3.63;;
14484;SDS011;7328;50.812;4.422;2022-07-06T02:16:20;3.60;;;3.30;;
14484;SDS011;7328;50.812;4.422;2022-07-06T02:18:46;4.03;;;3.20;;
14484;SDS011;7328;50.812;4.422;2022-07-06T02:21:12;3.20;;;2.63;;
14484;SDS011;7328;50.812;4.422;2022-07-06T02:23:37;3.03;;;2.80;;
14484;SDS011;7328;50.812;4.422;2022-07-06T02:26:04;5.50;;;2.87;;
14484;SDS011;7328;50.812;4.422;2022-07-06T02:28:30;4.03;;;2.83;;
14484;SDS011;7328;50.812;4.422;2022-07-06T02:30:56;3.07;;;2.87;;
14484;SDS011;7328;50.812;4.422;2022-07-06T02:33:21;3.37;;;3.03;;
14484;SDS011;7328;50.812;4.422;2022-07-06T02:35:47;3.87;;;2.23;;
14484;SDS011;7328;50.812;4.422;2022-07-06T02:38:13;2.33;;;2.23;;
14484;SDS011;7328;50.812;4.422;2022-07-06T02:40:39;6.50;;;2.93;;
14484;SDS011;7328;50.812;4.422;2022-07-06T02:43:05;5.03;;;2.40;;
14484;SDS011;7328;50.812;4.422;2022-07-06T02:45:31;6.23;;;3.00;;
14484;SDS011;7328;50.812;4.422;2022-07-06T02:47:57;2.63;;;2.43;;
14484;SDS011;7328;50.812;4.422;2022-07-06T02:50:23;5.77;;;2.53;;
14484;SDS011;7328;50.812;4.422;2022-07-06T02:52:50;4.90;;;2.00;;
14484;SDS011;7328;50.812;4.422;2022-07-06T02:55:16;2.30;;;1.90;;
14484;SDS011;7328;50.812;4.422;2022-07-06T02:57:42;2.60;;;2.40;;
14484;SDS011;7328;50.812;4.422;2022-07-06T03:00:08;2.90;;;2.30;;
14484;SDS011;7328;50.812;4.422;2022-07-06T03:02:35;8.33;;;3.03;;
14484;SDS011;7328;50.812;4.422;2022-07-06T03:05:01;3.37;;;2.47;;
14484;SDS011;7328;50.812;4.422;2022-07-06T03:07:27;3.77;;;3.33;;
14484;SDS011;7328;50.812;4.422;2022-07-06T03:09:53;3.23;;;3.03;;
14484;SDS011;7328;50.812;4.422;2022-07-06T03:12:19;2.70;;;2.43;;
14484;SDS011;7328;50.812;4.422;2022-07-06T03:14:44;5.63;;;2.80;;
14484;SDS011;7328;50.812;4.422;2022-07-06T03:17:10;3.60;;;2.53;;
14484;SDS011;7328;50.812;4.422;2022-07-06T03:19:36;6.53;;;3.10;;
14484;SDS011;7328;50.812;4.422;2022-07-06T03:22:02;2.90;;;2.37;;
14484;SDS011;7328;50.812;4.422;2022-07-06T03:24:28;4.03;;;2.57;;
14484;SDS011;7328;50.812;4.422;2022-07-06T03:26:54;3.27;;;2.47;;
14484;SDS011;7328;50.812;4.422;2022-07-06T03:29:19;3.93;;;3.43;;
14484;SDS011;7328;50.812;4.422;2022-07-06T03:31:45;2.87;;;2.57;;
14484;SDS011;7328;50.812;4.422;2022-07-06T03:34:11;2.93;;;2.53;;
14484;SDS011;7328;50.812;4.422;2022-07-06T03:36:37;3.87;;;2.70;;
14484;SDS011;7328;50.812;4.422;2022-07-06T03:39:04;2.60;;;2.40;;
14484;SDS011;7328;50.812;4.422;2022-07-06T03:41:30;2.97;;;2.50;;
14484;SDS011;7328;50.812;4.422;2022-07-06T03:43:56;2.40;;;2.07;;
14484;SDS011;7328;50.812;4.422;2022-07-06T03:46:21;7.23;;;3.03;;
14484;SDS011;7328;50.812;4.422;2022-07-06T03:48:47;6.43;;;3.43;;
14484;SDS011;7328;50.812;4.422;2022-07-06T03:51:13;5.10;;;2.93;;
14484;SDS011;7328;50.812;4.422;2022-07-06T03:53:38;3.27;;;2.97;;
14484;SDS011;7328;50.812;4.422;2022-07-06T03:56:04;3.43;;;2.57;;
14484;SDS011;7328;50.812;4.422;2022-07-06T03:58:49;3.23;;;3.03;;
14484;SDS011;7328;50.812;4.422;2022-07-06T04:01:14;6.73;;;4.73;;
14484;SDS011;7328;50.812;4.422;2022-07-06T04:03:40;4.30;;;3.43;;
14484;SDS011;7328;50.812;4.422;2022-07-06T04:06:06;2.80;;;2.47;;
14484;SDS011;7328;50.812;4.422;2022-07-06T04:08:32;2.93;;;2.63;;
14484;SDS011;7328;50.812;4.422;2022-07-06T04:10:58;3.13;;;2.83;;
14484;SDS011;7328;50.812;4.422;2022-07-06T04:13:24;4.30;;;2.40;;
14484;SDS011;7328;50.812;4.422;2022-07-06T04:15:52;4.73;;;2.83;;
14484;SDS011;7328;50.812;4.422;2022-07-06T04:18:18;5.37;;;2.63;;
14484;SDS011;7328;50.812;4.422;2022-07-06T04:20:44;2.87;;;2.63;;
14484;SDS011;7328;50.812;4.422;2022-07-06T04:23:09;3.40;;;3.03;;
14484;SDS011;7328;50.812;4.422;2022-07-06T04:25:35;2.37;;;2.27;;
14484;SDS011;7328;50.812;4.422;2022-07-06T04:28:01;5.30;;;3.10;;
14484;SDS011;7328;50.812;4.422;2022-07-06T04:30:27;2.67;;;2.17;;
14484;SDS011;7328;50.812;4.422;2022-07-06T04:32:53;7.07;;;3.20;;
14484;SDS011;7328;50.812;4.422;2022-07-06T04:35:20;3.23;;;3.03;;
14484;SDS011;7328;50.812;4.422;2022-07-06T04:37:46;2.60;;;2.50;;
14484;SDS011;7328;50.812;4.422;2022-07-06T04:40:12;3.67;;;2.97;;
14484;SDS011;7328;50.812;4.422;2022-07-06T04:42:38;6.30;;;3.23;;
14484;SDS011;7328;50.812;4.422;2022-07-06T04:45:04;5.30;;;3.50;;
14484;SDS011;7328;50.812;4.422;2022-07-06T04:47:30;6.53;;;3.30;;
14484;SDS011;7328;50.812;4.422;2022-07-06T04:49:56;3.10;;;2.90;;
14484;SDS011;7328;50.812;4.422;2022-07-06T04:52:22;3.30;;;3.00;;
14484;SDS011;7328;50.812;4.422;2022-07-06T04:54:48;7.07;;;3.13;;
14484;SDS011;7328;50.812;4.422;2022-07-06T04:57:14;3.90;;;2.93;;
14484;SDS011;7328;50.812;4.422;2022-07-06T04:59:41;4.07;;;2.83;;
14484;SDS011;7328;50.812;4.422;2022-07-06T05:02:09;5.40;;;3.70;;
14484;SDS011;7328;50.812;4.422;2022-07-06T05:04:35;3.77;;;3.33;;
14484;SDS011;7328;50.812;4.422;2022-07-06T05:07:01;3.50;;;3.20;;
14484;SDS011;7328;50.812;4.422;2022-07-06T05:09:27;3.90;;;2.90;;
14484;SDS011;7328;50.812;4.422;2022-07-06T05:11:52;5.73;;;3.73;;
14484;SDS011;7328;50.812;4.422;2022-07-06T05:14:18;7.23;;;3.47;;
14484;SDS011;7328;50.812;4.422;2022-07-06T05:16:44;4.07;;;2.60;;
14484;SDS011;7328;50.812;4.422;2022-07-06T05:19:09;3.50;;;3.20;;
14484;SDS011;7328;50.812;4.422;2022-07-06T05:21:35;3.50;;;3.20;;
14484;SDS011;7328;50.812;4.422;2022-07-06T05:24:01;3.63;;;3.33;;
14484;SDS011;7328;50.812;4.422;2022-07-06T05:26:27;4.27;;;3.07;;
14484;SDS011;7328;50.812;4.422;2022-07-06T05:28:53;7.13;;;4.00;;
14484;SDS011;7328;50.812;4.422;2022-07-06T05:31:18;6.97;;;4.07;;
14484;SDS011;7328;50.812;4.422;2022-07-06T05:33:44;6.23;;;3.60;;
14484;SDS011;7328;50.812;4.422;2022-07-06T05:36:10;5.97;;;3.67;;
14484;SDS011;7328;50.812;4.422;2022-07-06T05:38:35;5.17;;;4.27;;
14484;SDS011;7328;50.812;4.422;2022-07-06T05:41:01;5.00;;;3.37;;
14484;SDS011;7328;50.812;4.422;2022-07-06T05:43:27;8.00;;;3.83;;
14484;SDS011;7328;50.812;4.422;2022-07-06T05:45:53;3.50;;;3.20;;
14484;SDS011;7328;50.812;4.422;2022-07-06T05:48:19;5.73;;;3.97;;
14484;SDS011;7328;50.812;4.422;2022-07-06T05:51:03;3.70;;;2.73;;
14484;SDS011;7328;50.812;4.422;2022-07-06T05:53:29;5.40;;;2.97;;
14484;SDS011;7328;50.812;4.422;2022-07-06T05:55:55;9.30;;;4.07;;
14484;SDS011;7328;50.812;4.422;2022-07-06T05:58:21;3.53;;;2.80;;
14484;SDS011;7328;50.812;4.422;2022-07-06T06:00:47;4.80;;;3.43;;
14484;SDS011;7328;50.812;4.422;2022-07-06T06:03:13;4.13;;;2.70;;
14484;SDS011;7328;50.812;4.422;2022-07-06T06:05:38;4.90;;;3.80;;
14484;SDS011;7328;50.812;4.422;2022-07-06T06:08:05;5.43;;;4.90;;
14484;SDS011;7328;50.812;4.422;2022-07-06T06:10:31;6.30;;;3.10;;
14484;SDS011;7328;50.812;4.422;2022-07-06T06:12:56;3.97;;;2.93;;
14484;SDS011;7328;50.812;4.422;2022-07-06T06:15:22;5.73;;;3.63;;
14484;SDS011;7328;50.812;4.422;2022-07-06T06:17:48;6.27;;;4.07;;
14484;SDS011;7328;50.812;4.422;2022-07-06T06:20:14;3.80;;;3.40;;
14484;SDS011;7328;50.812;4.422;2022-07-06T06:22:44;5.60;;;3.77;;
14484;SDS011;7328;50.812;4.422;2022-07-06T06:25:20;11.43;;;5.17;;
14484;SDS011;7328;50.812;4.422;2022-07-06T06:27:56;10.50;;;5.27;;
14484;SDS011;7328;50.812;4.422;2022-07-06T06:30:22;8.80;;;5.07;;
14484;SDS011;7328;50.812;4.422;2022-07-06T06:32:48;5.97;;;4.33;;
14484;SDS011;7328;50.812;4.422;2022-07-06T06:35:15;4.83;;;4.33;;
14484;SDS011;7328;50.812;4.422;2022-07-06T06:37:40;7.93;;;4.57;;
14484;SDS011;7328;50.812;4.422;2022-07-06T06:40:07;7.47;;;5.13;;
14484;SDS011;7328;50.812;4.422;2022-07-06T06:42:36;12.17;;;5.93;;
14484;SDS011;7328;50.812;4.422;2022-07-06T06:45:05;7.33;;;4.87;;
14484;SDS011;7328;50.812;4.422;2022-07-06T06:47:31;7.90;;;5.70;;
14484;SDS011;7328;50.812;4.422;2022-07-06T06:49:57;14.67;;;4.67;;
14484;SDS011;7328;50.812;4.422;2022-07-06T06:52:22;6.40;;;4.27;;
14484;SDS011;7328;50.812;4.422;2022-07-06T06:54:48;7.03;;;4.37;;
14484;SDS011;7328;50.812;4.422;2022-07-06T06:57:14;4.23;;;3.67;;
14484;SDS011;7328;50.812;4.422;2022-07-06T06:59:40;13.50;;;4.63;;
14484;SDS011;7328;50.812;4.422;2022-07-06T07:02:06;9.90;;;3.87;;
14484;SDS011;7328;50.812;4.422;2022-07-06T07:04:32;4.47;;;3.27;;
14484;SDS011;7328;50.812;4.422;2022-07-06T07:06:57;6.67;;;2.67;;
14484;SDS011;7328;50.812;4.422;2022-07-06T07:09:23;7.43;;;3.03;;
14484;SDS011;7328;50.812;4.422;2022-07-06T07:11:49;3.40;;;2.60;;
14484;SDS011;7328;50.812;4.422;2022-07-06T07:14:15;4.73;;;2.70;;
14484;SDS011;7328;50.812;4.422;2022-07-06T07:16:40;10.50;;;2.87;;
14484;SDS011;7328;50.812;4.422;2022-07-06T07:19:06;5.43;;;2.57;;
14484;SDS011;7328;50.812;4.422;2022-07-06T07:21:32;6.87;;;2.50;;
14484;SDS011;7328;50.812;4.422;2022-07-06T07:23:58;3.83;;;2.30;;
14484;SDS011;7328;50.812;4.422;2022-07-06T07:26:24;5.73;;;2.63;;
14484;SDS011;7328;50.812;4.422;2022-07-06T07:28:49;8.83;;;3.20;;
14484;SDS011;7328;50.812;4.422;2022-07-06T07:31:15;6.07;;;3.10;;
14484;SDS011;7328;50.812;4.422;2022-07-06T07:33:41;7.37;;;2.43;;
14484;SDS011;7328;50.812;4.422;2022-07-06T07:36:06;7.30;;;3.63;;
14484;SDS011;7328;50.812;4.422;2022-07-06T07:38:33;5.90;;;2.37;;
14484;SDS011;7328;50.812;4.422;2022-07-06T07:40:58;7.57;;;2.70;;
14484;SDS011;7328;50.812;4.422;2022-07-06T07:43:24;9.63;;;4.53;;
14484;SDS011;7328;50.812;4.422;2022-07-06T07:45:50;7.33;;;3.47;;
14484;SDS011;7328;50.812;4.422;2022-07-06T07:48:16;10.30;;;3.53;;
14484;SDS011;7328;50.812;4.422;2022-07-06T07:50:42;22.60;;;3.50;;
14484;SDS011;7328;50.812;4.422;2022-07-06T07:53:08;5.67;;;2.93;;
14484;SDS011;7328;50.812;4.422;2022-07-06T07:55:34;3.10;;;1.77;;
14484;SDS011;7328;50.812;4.422;2022-07-06T07:58:00;9.60;;;2.60;;
14484;SDS011;7328;50.812;4.422;2022-07-06T08:00:25;9.10;;;2.80;;
14484;SDS011;7328;50.812;4.422;2022-07-06T08:02:53;3.27;;;2.37;;
14484;SDS011;7328;50.812;4.422;2022-07-06T08:05:19;3.37;;;1.87;;
14484;SDS011;7328;50.812;4.422;2022-07-06T08:07:45;3.83;;;2.60;;
14484;SDS011;7328;50.812;4.422;2022-07-06T08:10:11;4.73;;;2.30;;
14484;SDS011;7328;50.812;4.422;2022-07-06T08:12:37;6.67;;;2.07;;
14484;SDS011;7328;50.812;4.422;2022-07-06T08:15:04;4.57;;;2.40;;
14484;SDS011;7328;50.812;4.422;2022-07-06T08:17:30;4.63;;;3.47;;
14484;SDS011;7328;50.812;4.422;2022-07-06T08:19:56;7.27;;;3.37;;
14484;SDS011;7328;50.812;4.422;2022-07-06T08:22:22;8.13;;;3.63;;
14484;SDS011;7328;50.812;4.422;2022-07-06T08:24:48;3.77;;;2.70;;
14484;SDS011;7328;50.812;4.422;2022-07-06T08:27:14;5.80;;;2.33;;
14484;SDS011;7328;50.812;4.422;2022-07-06T08:29:40;3.67;;;3.10;;
14484;SDS011;7328;50.812;4.422;2022-07-06T08:32:05;10.17;;;4.70;;
14484;SDS011;7328;50.812;4.422;2022-07-06T08:34:31;5.70;;;3.40;;
14484;SDS011;7328;50.812;4.422;2022-07-06T08:36:57;6.53;;;3.57;;
14484;SDS011;7328;50.812;4.422;2022-07-06T08:39:23;4.63;;;2.30;;
14484;SDS011;7328;50.812;4.422;2022-07-06T08:41:49;8.67;;;3.60;;
14484;SDS011;7328;50.812;4.422;2022-07-06T08:44:16;5.37;;;3.43;;
14484;SDS011;7328;50.812;4.422;2022-07-06T08:46:43;4.90;;;3.30;;
14484;SDS011;7328;50.812;4.422;2022-07-06T08:49:13;4.50;;;3.53;;
14484;SDS011;7328;50.812;4.422;2022-07-06T08:51:41;8.00;;;3.10;;
14484;SDS011;7328;50.812;4.422;2022-07-06T08:54:07;3.80;;;2.63;;
14484;SDS011;7328;50.812;4.422;2022-07-06T08:56:33;7.47;;;3.00;;
14484;SDS011;7328;50.812;4.422;2022-07-06T08:58:59;4.57;;;2.60;;
14484;SDS011;7328;50.812;4.422;2022-07-06T09:01:25;3.43;;;3.13;;
14484;SDS011;7328;50.812;4.422;2022-07-06T09:03:52;6.53;;;2.83;;
14484;SDS011;7328;50.812;4.422;2022-07-06T09:06:23;7.47;;;3.50;;
14484;SDS011;7328;50.812;4.422;2022-07-06T09:08:49;7.53;;;3.47;;
14484;SDS011;7328;50.812;4.422;2022-07-06T09:11:22;10.10;;;4.40;;
14484;SDS011;7328;50.812;4.422;2022-07-06T09:13:52;6.10;;;3.00;;
14484;SDS011;7328;50.812;4.422;2022-07-06T09:16:20;4.93;;;3.50;;
14484;SDS011;7328;50.812;4.422;2022-07-06T09:18:52;5.33;;;2.67;;
14484;SDS011;7328;50.812;4.422;2022-07-06T09:21:25;5.70;;;2.57;;
14484;SDS011;7328;50.812;4.422;2022-07-06T09:24:01;5.67;;;2.43;;
14484;SDS011;7328;50.812;4.422;2022-07-06T09:26:30;2.73;;;2.53;;
14484;SDS011;7328;50.812;4.422;2022-07-06T09:28:56;2.87;;;2.20;;
14484;SDS011;7328;50.812;4.422;2022-07-06T09:31:24;9.40;;;2.67;;
14484;SDS011;7328;50.812;4.422;2022-07-06T09:39:19;5.87;;;3.07;;
14484;SDS011;7328;50.812;4.422;2022-07-06T09:41:50;2.37;;;2.17;;
14484;SDS011;7328;50.812;4.422;2022-07-06T09:44:21;3.07;;;2.77;;
14484;SDS011;7328;50.812;4.422;2022-07-06T09:46:47;4.57;;;2.60;;
14484;SDS011;7328;50.812;4.422;2022-07-06T09:49:16;6.67;;;3.67;;
14484;SDS011;7328;50.812;4.422;2022-07-06T09:51:44;14.77;;;4.73;;
14484;SDS011;7328;50.812;4.422;2022-07-06T09:54:11;8.53;;;3.13;;
14484;SDS011;7328;50.812;4.422;2022-07-06T09:56:42;7.30;;;2.83;;
14484;SDS011;7328;50.812;4.422;2022-07-06T09:59:10;2.93;;;2.13;;
14484;SDS011;7328;50.812;4.422;2022-07-06T10:01:37;4.77;;;2.57;;
14484;SDS011;7328;50.812;4.422;2022-07-06T10:04:04;9.93;;;3.10;;
14484;SDS011;7328;50.812;4.422;2022-07-06T10:06:34;6.03;;;3.23;;
14484;SDS011;7328;50.812;4.422;2022-07-06T10:09:02;5.67;;;2.80;;
14484;SDS011;7328;50.812;4.422;2022-07-06T10:11:31;6.87;;;2.93;;
14484;SDS011;7328;50.812;4.422;2022-07-06T10:14:03;5.63;;;3.20;;
14484;SDS011;7328;50.812;4.422;2022-07-06T10:16:30;7.20;;;2.80;;
14484;SDS011;7328;50.812;4.422;2022-07-06T10:18:57;2.87;;;2.47;;
14484;SDS011;7328;50.812;4.422;2022-07-06T10:21:24;2.53;;;2.33;;
14484;SDS011;7328;50.812;4.422;2022-07-06T10:23:50;2.73;;;2.37;;
14484;SDS011;7328;50.812;4.422;2022-07-06T10:26:17;2.93;;;2.23;;
14484;SDS011;7328;50.812;4.422;2022-07-06T10:28:44;3.13;;;2.30;;
14484;SDS011;7328;50.812;4.422;2022-07-06T10:31:13;9.60;;;2.67;;
14484;SDS011;7328;50.812;4.422;2022-07-06T10:33:43;5.20;;;2.53;;
14484;SDS011;7328;50.812;4.422;2022-07-06T10:36:09;4.13;;;3.37;;
14484;SDS011;7328;50.812;4.422;2022-07-06T10:38:36;8.57;;;3.20;;
14484;SDS011;7328;50.812;4.422;2022-07-06T10:41:03;3.30;;;2.57;;
14484;SDS011;7328;50.812;4.422;2022-07-06T10:43:49;5.93;;;2.97;;
14484;SDS011;7328;50.812;4.422;2022-07-06T10:46:16;4.40;;;3.23;;
14484;SDS011;7328;50.812;4.422;2022-07-06T10:48:44;7.30;;;3.60;;
14484;SDS011;7328;50.812;4.422;2022-07-06T10:51:11;3.60;;;2.60;;
14484;SDS011;7328;50.812;4.422;2022-07-06T10:53:49;7.73;;;3.00;;
14484;SDS011;7328;50.812;4.422;2022-07-06T10:56:21;3.60;;;2.63;;
14484;SDS011;7328;50.812;4.422;2022-07-06T10:59:14;3.37;;;3.07;;
14484;SDS011;7328;50.812;4.422;2022-07-06T11:01:42;4.90;;;2.70;;
14484;SDS011;7328;50.812;4.422;2022-07-06T11:04:40;2.50;;;1.97;;
14484;SDS011;7328;50.812;4.422;2022-07-06T11:07:11;4.70;;;2.10;;
14484;SDS011;7328;50.812;4.422;2022-07-06T11:09:41;3.07;;;2.23;;
14484;SDS011;7328;50.812;4.422;2022-07-06T11:12:20;5.13;;;2.37;;
14484;SDS011;7328;50.812;4.422;2022-07-06T11:14:47;6.00;;;2.57;;
14484;SDS011;7328;50.812;4.422;2022-07-06T11:17:14;4.90;;;2.20;;
14484;SDS011;7328;50.812;4.422;2022-07-06T11:19:50;4.57;;;2.17;;
14484;SDS011;7328;50.812;4.422;2022-07-06T11:22:20;5.17;;;2.03;;
14484;SDS011;7328;50.812;4.422;2022-07-06T11:24:46;3.67;;;1.53;;
14484;SDS011;7328;50.812;4.422;2022-07-06T11:27:12;3.27;;;1.77;;
14484;SDS011;7328;50.812;4.422;2022-07-06T11:29:39;4.43;;;1.80;;
14484;SDS011;7328;50.812;4.422;2022-07-06T11:32:06;3.37;;;2.43;;
14484;SDS011;7328;50.812;4.422;2022-07-06T11:34:35;3.50;;;2.03;;
14484;SDS011;7328;50.812;4.422;2022-07-06T11:37:10;4.30;;;1.97;;
14484;SDS011;7328;50.812;4.422;2022-07-06T11:39:38;2.53;;;1.40;;
14484;SDS011;7328;50.812;4.422;2022-07-06T11:42:05;7.50;;;2.40;;
14484;SDS011;7328;50.812;4.422;2022-07-06T11:44:33;5.10;;;2.43;;
14484;SDS011;7328;50.812;4.422;2022-07-06T11:47:01;2.60;;;1.50;;
14484;SDS011;7328;50.812;4.422;2022-07-06T11:49:29;2.60;;;1.83;;
14484;SDS011;7328;50.812;4.422;2022-07-06T11:51:55;2.77;;;1.53;;
14484;SDS011;7328;50.812;4.422;2022-07-06T11:54:22;2.97;;;1.50;;
14484;SDS011;7328;50.812;4.422;2022-07-06T11:56:55;2.27;;;2.03;;
14484;SDS011;7328;50.812;4.422;2022-07-06T11:59:29;1.87;;;1.63;;
14484;SDS011;7328;50.812;4.422;2022-07-06T12:01:57;4.33;;;1.80;;
14484;SDS011;7328;50.812;4.422;2022-07-06T12:04:29;5.53;;;1.83;;
14484;SDS011;7328;50.812;4.422;2022-07-06T12:06:57;6.17;;;2.40;;
14484;SDS011;7328;50.812;4.422;2022-07-06T12:09:29;7.97;;;3.03;;
14484;SDS011;7328;50.812;4.422;2022-07-06T12:11:56;6.10;;;2.23;;
14484;SDS011;7328;50.812;4.422;2022-07-06T12:14:22;11.67;;;2.30;;
14484;SDS011;7328;50.812;4.422;2022-07-06T12:16:49;4.03;;;1.60;;
14484;SDS011;7328;50.812;4.422;2022-07-06T12:19:16;3.80;;;1.90;;
14484;SDS011;7328;50.812;4.422;2022-07-06T12:21:42;2.90;;;1.10;;
14484;SDS011;7328;50.812;4.422;2022-07-06T12:24:32;3.73;;;2.57;;
14484;SDS011;7328;50.812;4.422;2022-07-06T12:27:08;3.33;;;1.77;;
14484;SDS011;7328;50.812;4.422;2022-07-06T12:29:43;2.23;;;1.60;;
14484;SDS011;7328;50.812;4.422;2022-07-06T12:34:43;5.30;;;2.03;;
14484;SDS011;7328;50.812;4.422;2022-07-06T12:37:09;3.83;;;1.80;;
14484;SDS011;7328;50.812;4.422;2022-07-06T12:39:43;2.03;;;1.87;;
14484;SDS011;7328;50.812;4.422;2022-07-06T12:42:13;3.43;;;1.77;;
14484;SDS011;7328;50.812;4.422;2022-07-06T12:44:43;6.63;;;2.20;;
14484;SDS011;7328;50.812;4.422;2022-07-06T12:47:11;12.70;;;3.80;;
14484;SDS011;7328;50.812;4.422;2022-07-06T12:49:38;3.20;;;2.07;;
14484;SDS011;7328;50.812;4.422;2022-07-06T12:54:47;3.57;;;1.80;;
14484;SDS011;7328;50.812;4.422;2022-07-06T12:59:40;3.53;;;2.03;;
14484;SDS011;7328;50.812;4.422;2022-07-06T13:02:08;6.57;;;2.10;;
14484;SDS011;7328;50.812;4.422;2022-07-06T13:04:42;3.67;;;2.20;;
14484;SDS011;7328;50.812;4.422;2022-07-06T13:07:07;5.30;;;2.10;;
14484;SDS011;7328;50.812;4.422;2022-07-06T13:09:44;6.10;;;1.60;;
14484;SDS011;7328;50.812;4.422;2022-07-06T13:12:10;3.47;;;1.43;;
14484;SDS011;7328;50.812;4.422;2022-07-06T13:14:36;5.23;;;1.53;;
14484;SDS011;7328;50.812;4.422;2022-07-06T13:17:02;3.60;;;2.20;;
14484;SDS011;7328;50.812;4.422;2022-07-06T13:19:28;5.00;;;1.90;;
14484;SDS011;7328;50.812;4.422;2022-07-06T13:21:54;3.27;;;2.20;;
14484;SDS011;7328;50.812;4.422;2022-07-06T13:24:20;1.50;;;1.43;;
14484;SDS011;7328;50.812;4.422;2022-07-06T13:26:46;2.40;;;2.20;;
14484;SDS011;7328;50.812;4.422;2022-07-06T13:29:12;2.83;;;1.70;;
14484;SDS011;7328;50.812;4.422;2022-07-06T13:31:38;2.67;;;2.03;;
14484;SDS011;7328;50.812;4.422;2022-07-06T13:34:05;7.00;;;2.53;;
14484;SDS011;7328;50.812;4.422;2022-07-06T13:36:31;1.63;;;1.53;;
14484;SDS011;7328;50.812;4.422;2022-07-06T13:38:57;4.07;;;1.97;;
14484;SDS011;7328;50.812;4.422;2022-07-06T13:41:23;4.27;;;2.53;;
14484;SDS011;7328;50.812;4.422;2022-07-06T13:43:49;2.73;;;2.20;;
14484;SDS011;7328;50.812;4.422;2022-07-06T13:46:15;3.73;;;1.93;;
14484;SDS011;7328;50.812;4.422;2022-07-06T13:48:41;3.80;;;2.10;;
14484;SDS011;7328;50.812;4.422;2022-07-06T13:51:08;5.13;;;2.30;;
14484;SDS011;7328;50.812;4.422;2022-07-06T13:53:34;2.10;;;1.80;;
14484;SDS011;7328;50.812;4.422;2022-07-06T13:56:00;5.13;;;2.23;;
14484;SDS011;7328;50.812;4.422;2022-07-06T13:58:26;3.70;;;1.70;;
14484;SDS011;7328;50.812;4.422;2022-07-06T14:00:51;4.03;;;1.20;;
14484;SDS011;7328;50.812;4.422;2022-07-06T14:03:17;3.90;;;1.70;;
14484;SDS011;7328;50.812;4.422;2022-07-06T14:05:43;4.07;;;1.33;;
14484;SDS011;7328;50.812;4.422;2022-07-06T14:08:09;1.70;;;1.57;;
14484;SDS011;7328;50.812;4.422;2022-07-06T14:10:35;3.37;;;2.53;;
14484;SDS011;7328;50.812;4.422;2022-07-06T14:13:01;2.93;;;2.40;;
14484;SDS011;7328;50.812;4.422;2022-07-06T14:15:27;2.17;;;1.47;;
14484;SDS011;7328;50.812;4.422;2022-07-06T14:17:53;3.90;;;1.73;;
14484;SDS011;7328;50.812;4.422;2022-07-06T14:20:18;3.33;;;2.50;;
14484;SDS011;7328;50.812;4.422;2022-07-06T14:22:44;3.03;;;2.13;;
14484;SDS011;7328;50.812;4.422;2022-07-06T14:25:10;2.23;;;2.07;;
14484;SDS011;7328;50.812;4.422;2022-07-06T14:27:36;1.70;;;1.60;;
14484;SDS011;7328;50.812;4.422;2022-07-06T14:30:02;3.63;;;1.60;;
14484;SDS011;7328;50.812;4.422;2022-07-06T14:32:28;3.63;;;1.40;;
14484;SDS011;7328;50.812;4.422;2022-07-06T14:34:54;4.60;;;1.50;;
14484;SDS011;7328;50.812;4.422;2022-07-06T14:37:20;3.17;;;1.60;;
14484;SDS011;7328;50.812;4.422;2022-07-06T14:39:46;3.83;;;1.43;;
14484;SDS011;7328;50.812;4.422;2022-07-06T14:42:13;3.00;;;1.90;;
14484;SDS011;7328;50.812;4.422;2022-07-06T14:44:39;6.27;;;2.77;;
14484;SDS011;7328;50.812;4.422;2022-07-06T14:47:05;1.70;;;1.60;;
14484;SDS011;7328;50.812;4.422;2022-07-06T14:49:31;5.80;;;1.70;;
14484;SDS011;7328;50.812;4.422;2022-07-06T14:51:57;2.37;;;2.07;;
14484;SDS011;7328;50.812;4.422;2022-07-06T14:54:23;4.13;;;1.67;;
14484;SDS011;7328;50.812;4.422;2022-07-06T14:56:49;3.57;;;1.70;;
14484;SDS011;7328;50.812;4.422;2022-07-06T14:59:15;2.43;;;1.63;;
14484;SDS011;7328;50.812;4.422;2022-07-06T15:01:41;3.83;;;1.37;;
14484;SDS011;7328;50.812;4.422;2022-07-06T15:04:07;3.00;;;1.57;;
14484;SDS011;7328;50.812;4.422;2022-07-06T15:06:33;2.70;;;2.10;;
14484;SDS011;7328;50.812;4.422;2022-07-06T15:08:59;4.47;;;1.87;;
14484;SDS011;7328;50.812;4.422;2022-07-06T15:11:29;6.50;;;1.67;;
14484;SDS011;7328;50.812;4.422;2022-07-06T15:13:56;3.93;;;1.80;;